createdAt,value
2019-05-19T00:02:26.747Z,17.40
2019-05-19T00:07:49.858Z,17.40
2019-05-19T00:13:13.147Z,17.40
2019-05-19T00:18:36.803Z,17.40
2019-05-19T00:24:00.830Z,17.40
2019-05-19T00:29:24.819Z,17.30
2019-05-19T00:34:48.631Z,17.30
2019-05-19T00:40:12.188Z,17.30
2019-05-19T00:45:35.986Z,17.20
2019-05-19T00:50:59.791Z,16.90
2019-05-19T00:56:24.327Z,17.00
2019-05-19T01:01:48.341Z,17.00
2019-05-19T01:07:12.382Z,17.00
2019-05-19T01:12:36.291Z,16.90
2019-05-19T01:18:00.216Z,16.90
2019-05-19T01:23:23.695Z,16.90
2019-05-19T01:28:47.594Z,16.80
2019-05-19T01:34:11.703Z,16.80
2019-05-19T01:39:34.888Z,16.80
2019-05-19T01:44:58.931Z,16.80
2019-05-19T01:50:22.079Z,16.70
2019-05-19T01:55:45.408Z,16.70
2019-05-19T02:01:09.483Z,16.70
2019-05-19T02:06:32.790Z,16.60
2019-05-19T02:11:56.629Z,16.70
2019-05-19T02:17:20.435Z,16.60
2019-05-19T02:22:44.143Z,16.60
2019-05-19T02:28:07.541Z,16.60
2019-05-19T02:33:35.328Z,16.50
2019-05-19T02:38:55.978Z,16.60
2019-05-19T02:44:20.649Z,16.50
2019-05-19T02:49:46.791Z,16.40
2019-05-19T02:55:10.622Z,16.30
2019-05-19T03:00:39.663Z,16.30
2019-05-19T03:06:03.159Z,16.30
2019-05-19T03:11:26.722Z,16.20
2019-05-19T03:16:49.963Z,16.30
2019-05-19T03:22:13.276Z,16.20
2019-05-19T03:27:37.068Z,16.20
2019-05-19T03:33:02.637Z,16.20
2019-05-19T03:38:26.505Z,16.20
2019-05-19T03:43:50.482Z,16.10
2019-05-19T03:49:13.600Z,16.00
2019-05-19T03:54:36.825Z,15.90
2019-05-19T04:00:01.245Z,15.90
2019-05-19T04:05:24.706Z,15.90
2019-05-19T04:10:48.622Z,16.00
2019-05-19T04:16:12.216Z,16.10
2019-05-19T04:21:48.297Z,16.10
2019-05-19T04:27:00.511Z,15.90
2019-05-19T04:32:23.692Z,16.10
2019-05-19T04:37:47.387Z,16.30
2019-05-19T04:43:10.892Z,16.60
2019-05-19T04:48:34.029Z,16.70
2019-05-19T04:53:57.626Z,16.90
2019-05-19T04:59:21.551Z,17.00
2019-05-19T05:04:45.456Z,17.00
2019-05-19T05:10:09.326Z,17.10
2019-05-19T05:15:33.099Z,17.20
2019-05-19T05:20:56.219Z,17.30
2019-05-19T05:26:20.041Z,17.40
2019-05-19T05:31:43.112Z,17.50
2019-05-19T05:37:07.275Z,17.60
2019-05-19T05:42:31.959Z,17.70
2019-05-19T05:47:55.978Z,17.80
2019-05-19T05:53:19.439Z,18.00
2019-05-19T05:58:43.032Z,18.10
2019-05-19T06:04:07.059Z,18.30
2019-05-19T06:09:30.344Z,18.60
2019-05-19T06:14:54.216Z,18.90
2019-05-19T06:20:17.940Z,19.20
2019-05-19T06:25:41.485Z,19.60
2019-05-19T06:31:05.371Z,20.10
2019-05-19T06:36:28.868Z,20.10
2019-05-19T06:41:52.042Z,20.10
2019-05-19T06:47:15.432Z,20.40
2019-05-19T06:52:39.425Z,20.70
2019-05-19T06:58:02.761Z,21.30
2019-05-19T07:03:26.388Z,21.60
2019-05-19T07:08:50.167Z,21.80
2019-05-19T07:14:13.859Z,21.80
2019-05-19T07:19:37.567Z,21.50
2019-05-19T07:25:01.630Z,21.50
2019-05-19T07:30:25.395Z,21.70
2019-05-19T07:35:48.965Z,21.80
2019-05-19T07:41:12.443Z,21.90
2019-05-19T07:46:36.468Z,22.20
2019-05-19T07:52:00.261Z,22.20
2019-05-19T07:57:23.766Z,22.30
2019-05-19T08:02:47.012Z,22.50
2019-05-19T08:08:11.582Z,22.50
2019-05-19T08:13:34.905Z,23.30
2019-05-19T08:18:58.768Z,23.70
2019-05-19T08:24:22.686Z,24.50
2019-05-19T08:29:46.352Z,24.70
2019-05-19T08:35:09.608Z,24.80
2019-05-19T08:40:33.760Z,24.70
2019-05-19T08:45:58.211Z,24.70
2019-05-19T08:51:22.080Z,25.90
2019-05-19T08:56:45.348Z,26.70
2019-05-19T09:02:08.715Z,27.80
2019-05-19T09:07:32.584Z,28.70
2019-05-19T09:12:56.505Z,28.90
2019-05-19T09:18:20.369Z,29.30
2019-05-19T09:23:44.140Z,30.00
2019-05-19T09:29:08.176Z,30.20
2019-05-19T09:34:31.470Z,30.60
2019-05-19T09:39:56.372Z,31.00
2019-05-19T09:45:20.418Z,30.80
2019-05-19T09:50:43.807Z,31.20
2019-05-19T09:56:07.016Z,32.30
2019-05-19T10:01:30.687Z,33.20
2019-05-19T10:06:54.256Z,33.50
2019-05-19T10:12:18.698Z,34.40
2019-05-19T10:17:42.723Z,35.30
2019-05-19T10:23:06.045Z,34.40
2019-05-19T10:28:29.408Z,33.50
2019-05-19T10:33:53.484Z,33.60
2019-05-19T10:39:17.299Z,34.30
2019-05-19T10:44:40.788Z,34.10
2019-05-19T10:50:04.414Z,33.70
2019-05-19T10:55:35.976Z,32.60
2019-05-19T11:00:53.092Z,32.70
2019-05-19T11:06:17.192Z,33.00
2019-05-19T11:11:40.598Z,33.10
2019-05-19T11:17:03.904Z,34.40
2019-05-19T11:22:27.195Z,33.80
2019-05-19T11:27:50.523Z,33.20
2019-05-19T11:33:13.853Z,33.10
2019-05-19T11:38:37.341Z,32.70
2019-05-19T11:44:00.680Z,32.90
2019-05-19T11:49:24.112Z,33.60
2019-05-19T11:54:47.668Z,34.10
2019-05-19T12:00:11.542Z,34.70
2019-05-19T12:05:35.610Z,35.20
2019-05-19T12:10:59.079Z,34.20
2019-05-19T12:16:22.904Z,34.40
2019-05-19T12:21:47.219Z,35.50
2019-05-19T12:27:10.551Z,36.10
2019-05-19T12:32:34.509Z,37.00
2019-05-19T12:37:58.591Z,36.40
2019-05-19T12:43:22.145Z,34.50
2019-05-19T12:48:46.207Z,33.10
2019-05-19T12:54:09.605Z,34.00
2019-05-19T12:59:32.904Z,34.70
2019-05-19T13:05:05.041Z,35.40
2019-05-19T13:10:20.938Z,34.90
2019-05-19T13:15:44.888Z,34.00
2019-05-19T13:21:08.957Z,34.00
2019-05-19T13:26:32.860Z,34.40
2019-05-19T13:31:56.091Z,34.20
2019-05-19T13:37:20.148Z,33.90
2019-05-19T13:42:44.079Z,33.10
2019-05-19T13:48:07.811Z,34.30
2019-05-19T13:53:31.380Z,34.30
2019-05-19T13:58:55.269Z,34.40
2019-05-19T14:04:18.968Z,34.60
2019-05-19T14:09:42.908Z,34.30
2019-05-19T14:15:06.607Z,34.10
2019-05-19T14:20:30.155Z,33.70
2019-05-19T14:25:53.639Z,33.50
2019-05-19T14:31:17.791Z,31.30
2019-05-19T14:36:41.938Z,27.70
2019-05-19T14:42:09.439Z,27.30
2019-05-19T14:47:32.647Z,25.00
2019-05-19T14:52:56.305Z,24.70
2019-05-19T14:58:21.471Z,24.20
2019-05-19T15:03:45.324Z,24.80
2019-05-19T15:09:08.602Z,26.40
2019-05-19T15:14:32.262Z,27.10
2019-05-19T15:19:56.253Z,24.40
2019-05-19T15:25:19.935Z,25.40
2019-05-19T15:30:43.751Z,25.20
2019-05-19T15:36:08.086Z,25.40
2019-05-19T15:41:32.308Z,25.20
2019-05-19T15:46:55.929Z,25.10
2019-05-19T15:52:19.611Z,24.60
2019-05-19T15:57:43.832Z,24.10
2019-05-19T16:03:07.154Z,23.40
2019-05-19T16:08:30.484Z,23.90
2019-05-19T16:13:54.147Z,24.00
2019-05-19T16:19:18.075Z,25.10
2019-05-19T16:24:42.107Z,25.70
2019-05-19T16:30:06.098Z,25.90
2019-05-19T16:35:29.622Z,25.70
2019-05-19T16:40:53.931Z,25.90
2019-05-19T16:46:17.578Z,26.40
2019-05-19T16:51:41.511Z,26.60
2019-05-19T16:57:04.828Z,26.30
2019-05-19T17:02:28.922Z,26.00
2019-05-19T17:07:52.875Z,26.00
2019-05-19T17:13:16.742Z,26.10
2019-05-19T17:18:40.510Z,25.80
2019-05-19T17:24:04.270Z,24.60
2019-05-19T17:29:27.304Z,22.60
2019-05-19T17:34:51.404Z,22.20
2019-05-19T17:40:14.987Z,23.10
2019-05-19T17:45:41.323Z,24.00
2019-05-19T17:51:05.687Z,23.50
2019-05-19T17:56:30.853Z,22.00
2019-05-19T18:01:55.232Z,23.10
2019-05-19T18:07:18.968Z,22.90
2019-05-19T18:12:42.763Z,22.00
2019-05-19T18:18:06.488Z,22.50
2019-05-19T18:23:30.746Z,21.70
2019-05-19T18:39:39.771Z,21.20
2019-05-19T18:45:03.347Z,21.80
2019-05-19T18:50:27.332Z,21.60
2019-05-19T18:55:50.916Z,22.00
2019-05-19T19:06:37.714Z,21.90
2019-05-19T19:33:34.375Z,21.40
2019-05-19T19:38:57.614Z,21.40
2019-05-19T19:49:44.688Z,21.10
2019-05-19T19:55:08.651Z,21.00
2019-05-19T20:00:40.787Z,20.90
2019-05-19T20:06:05.864Z,21.10
2019-05-19T20:22:16.345Z,20.70
2019-05-19T20:27:39.975Z,20.60
2019-05-19T20:38:27.007Z,20.30
2019-05-19T20:43:50.932Z,20.50
2019-05-19T20:49:14.553Z,20.20
2019-05-19T20:54:38.220Z,20.20
2019-05-19T21:21:56.683Z,19.50
2019-05-19T21:32:42.796Z,20.00
2019-05-19T21:38:06.692Z,19.80
2019-05-19T21:43:30.204Z,19.20
2019-05-19T21:48:53.398Z,19.60
2019-05-19T21:54:17.049Z,19.50
2019-05-19T22:05:06.811Z,19.40
2019-05-19T22:15:53.505Z,19.30
2019-05-19T22:21:17.007Z,19.20
2019-05-19T22:32:03.937Z,19.00
2019-05-19T23:15:08.684Z,18.70
2019-05-19T23:20:32.421Z,18.70
2019-05-19T23:31:18.845Z,18.40
2019-05-19T23:36:42.392Z,18.60
2019-05-19T23:42:06.035Z,18.50
2019-05-19T23:52:52.641Z,18.20
2019-05-19T23:58:15.795Z,17.90
